Latest Weather Observations for Centre Island

IDD60801

Issued at 7:31 pm CST Saturday 28 May 2016 (issued every 30 minutes, with the page automatically refreshed every 10 minutes)

About weather observations | Map of weather stations | Latest weather observations for NT | Other Formats
Station Details ID: 014703 Name: CENTRE ISLAND Lat: -15.74 Lon: 136.82 Height: 12.2 m
Data from the previous 72 hours. | See also: Recent months at Centre Island
Date/Time
CST
Temp
°C
App
Temp
°C
Dew
Point
Rel
Hum
%
Delta-T
°C
Wind Press
QNH
hPa
Press
MSL
hPa
Rain
since 9 am
mm
Dir
 
Spd
km/h
Gust
km/h
Spd
kts
Gust
kts
28/07:30pm 26.5 27.1 22.8 80 2.5 E 24 30 13 16 1013.1 1013.1 0.0
28/07:00pm 26.4 26.6 22.7 80 2.5 E 26 28 14 15 1012.8 1012.8 0.0
28/06:30pm 26.5 26.8 22.3 78 2.8 E 24 30 13 16 1012.5 1012.5 0.0
28/06:00pm 27.0 27.0 22.4 76 3.1 E 26 28 14 15 1012.4 1012.4 0.0
28/05:30pm 27.6 28.8 22.5 74 3.5 E 20 24 11 13 1012.3 1012.3 0.0
28/05:00pm 28.5 29.2 22.3 69 4.2 E 22 24 12 13 1012.1 1012.1 0.0
28/04:30pm 28.9 29.3 21.7 65 4.8 E 22 28 12 15 1012.0 1012.0 0.0
28/04:00pm 29.2 30.0 23.2 70 4.1 ESE 24 30 13 16 1011.9 1011.9 0.0
28/03:30pm 30.3 31.8 22.7 64 5.2 ESE 19 28 10 15 1011.9 1011.9 0.0
28/03:00pm 30.7 33.2 21.8 59 6.0 E 11 15 6 8 1011.9 1011.9 0.0
28/02:30pm 31.0 34.0 22.0 58 6.1 E 9 13 5 7 1012.1 1012.1 0.0
28/02:00pm 30.8 33.9 22.1 59 5.9 E 9 11 5 6 1012.3 1012.3 0.0
28/01:30pm 30.5 32.8 20.7 55 6.5 ENE 9 11 5 6 1012.6 1012.6 0.0
28/01:00pm 30.6 33.2 21.9 59 5.9 E 11 13 6 7 1013.0 1013.0 0.0
28/12:30pm 29.3 32.8 22.8 68 4.4 ESE 9 11 5 6 1013.5 1013.5 0.0
28/12:00pm 29.0 32.3 22.5 68 4.4 SE 9 11 5 6 1013.9 1013.9 0.0
28/11:30am 28.9 31.5 22.6 69 4.3 SSE 13 13 7 7 1014.4 1014.4 0.0
28/11:00am 29.4 32.3 23.1 69 4.3 SSE 13 15 7 8 1014.9 1014.9 0.0
28/10:30am 29.0 32.3 23.9 74 3.5 SSE 13 17 7 9 1015.1 1015.1 0.0
28/10:00am 28.6 31.2 23.9 75 3.2 SSE 17 20 9 11 1015.5 1015.5 0.0
28/09:30am 28.2 30.7 23.8 77 3.0 SSE 17 20 9 11 1015.7 1015.7 0.0
28/09:00am 28.0 30.5 23.8 78 2.9 SSE 17 20 9 11 1015.6 1015.6 -
28/08:30am 27.3 29.7 24.2 83 2.1 SSE 19 20 10 11 1015.5 1015.5 -
28/08:00am 25.7 27.6 23.7 89 1.4 SSE 20 24 11 13 1015.0 1015.0 -
28/07:30am 25.6 27.5 23.8 90 1.2 S 20 24 11 13 1014.5 1014.5 -
28/07:00am 25.2 27.0 23.6 91 1.1 S 20 24 11 13 1014.1 1014.1 -
28/06:30am 25.5 28.1 23.9 91 1.1 S 17 20 9 11 1013.8 1013.8 -
28/06:00am 26.2 30.2 23.7 86 1.7 S 9 11 5 6 1013.3 1013.3 -
28/05:30am 25.5 31.3 23.9 91 1.1 CALM 0 2 0 1 1013.0 1013.0 -
28/05:00am 25.0 29.7 23.4 91 1.1 NE 4 6 2 3 1012.6 1012.6 -
28/04:30am 25.1 29.4 23.3 90 1.2 ENE 6 9 3 5 1012.3 1012.3 -
28/04:00am 25.0 29.1 23.2 90 1.2 ENE 7 9 4 5 1012.2 1012.2 -
28/03:30am 25.0 30.4 23.2 90 1.2 CALM 0 0 0 0 1012.1 1012.1 -
28/03:00am 25.0 29.1 22.9 88 1.4 N 6 6 3 3 1012.2 1012.2 -
28/02:30am 25.4 29.7 23.3 88 1.4 NNE 6 9 3 5 1012.3 1012.3 -
28/02:00am 25.5 30.8 23.0 86 1.7 CALM 0 2 0 1 1012.6 1012.6 -
28/01:30am 26.3 30.6 23.6 85 1.8 NNE 7 11 4 6 1012.5 1012.5 -
28/01:23am 26.3 30.2 23.6 85 1.8 NNE 9 11 5 6 1012.6 1012.6 -
28/01:21am 26.4 30.2 23.5 84 2.0 NNE 9 11 5 6 1022.0 1022.0 -
28/01:00am 26.5 30.4 23.6 84 2.0 NE 9 11 5 6 1012.6 1012.6 0.0
28/12:30am 26.7 30.2 23.6 83 2.1 NNE 11 13 6 7 1012.7 1012.7 0.0
28/12:00am 26.8 30.0 23.7 83 2.1 NE 13 17 7 9 1012.8 1012.8 0.0
 
Date/Time
CST
Temp
°C
App
Temp
°C
Dew
Point
Rel
Hum
%
Delta-T
°C
Wind Press
QNH
hPa
Press
MSL
hPa
Rain
since 9 am
mm
Dir
 
Spd
km/h
Gust
km/h
Spd
kts
Gust
kts
27/11:30pm 26.9 29.8 23.8 83 2.1 NE 15 17 8 9 1012.9 1012.9 0.0
27/11:00pm 27.0 29.9 23.9 83 2.1 NE 15 19 8 10 1012.9 1012.9 0.0
27/10:30pm 27.0 29.4 23.7 82 2.3 NE 17 20 9 11 1012.7 1012.7 0.0
27/10:00pm 27.0 30.3 23.9 83 2.1 NE 13 17 7 9 1012.7 1012.7 0.0
27/09:30pm 27.1 30.2 23.6 81 2.4 NE 13 17 7 9 1012.7 1012.7 0.0
27/09:00pm 27.2 30.4 23.7 81 2.4 NE 13 17 7 9 1012.6 1012.6 0.0
27/08:30pm 27.2 30.2 23.4 80 2.6 NNE 13 19 7 10 1012.3 1012.3 0.0
27/08:00pm 27.1 30.1 23.3 80 2.6 NNE 13 15 7 8 1012.2 1012.2 0.0
27/07:30pm 27.3 30.3 23.3 79 2.7 NNE 13 19 7 10 1011.9 1011.9 0.0
27/07:00pm 27.4 29.9 23.2 78 2.9 NNE 15 19 8 10 1011.8 1011.8 0.0
27/06:30pm 27.6 30.6 23.4 78 2.9 N 13 17 7 9 1011.8 1011.8 0.0
27/06:00pm 27.8 31.0 23.0 75 3.3 N 11 19 6 10 1011.6 1011.6 0.0
27/05:30pm 28.5 30.9 23.6 75 3.4 NNE 17 22 9 12 1011.5 1011.5 0.0
27/05:00pm 29.0 31.1 23.7 73 3.7 NNE 19 24 10 13 1011.2 1011.2 0.0
27/04:30pm 29.2 31.1 23.4 71 4.0 NNE 19 26 10 14 1011.1 1011.1 0.0
27/04:00pm 29.6 31.5 23.5 69 4.2 NNE 19 24 10 13 1011.1 1011.1 0.0
27/03:30pm 29.9 32.0 24.1 71 4.0 NNE 20 26 11 14 1011.1 1011.1 0.0
27/03:00pm 30.1 32.1 24.0 70 4.2 NE 20 26 11 14 1011.3 1011.3 0.0
27/02:30pm 30.7 33.0 24.1 68 4.6 NNE 19 24 10 13 1011.4 1011.4 0.0
27/02:00pm 31.0 33.9 24.4 68 4.6 NE 17 22 9 12 1011.7 1011.7 0.0
27/01:30pm 30.9 33.8 23.8 66 4.9 NE 15 20 8 11 1012.2 1012.2 0.0
27/01:00pm 30.4 33.9 23.6 67 4.7 NE 11 15 6 8 1012.7 1012.7 0.0
27/12:30pm 30.0 33.5 22.9 65 4.9 E 9 11 5 6 1013.2 1013.2 0.0
27/12:00pm 29.1 33.5 23.8 73 3.7 SE 7 9 4 5 1013.8 1013.8 0.0
27/11:30am 28.6 32.6 23.7 75 3.4 SE 9 11 5 6 1014.1 1014.1 0.0
27/11:00am 28.5 32.6 23.9 76 3.2 SE 9 11 5 6 1014.5 1014.5 0.0
27/10:30am 28.3 32.5 24.1 78 2.9 SE 9 11 5 6 1014.7 1014.7 0.0
27/10:00am 28.2 32.1 24.2 79 2.8 SE 11 13 6 7 1014.9 1014.9 0.0
27/09:30am 27.9 32.1 24.1 80 2.6 SE 9 11 5 6 1014.8 1014.8 0.0
27/09:00am 27.7 31.5 24.1 81 2.5 SSE 11 13 6 7 1014.8 1014.8 0.0
27/08:30am 27.3 31.2 24.2 83 2.1 SSE 11 13 6 7 1014.6 1014.6 0.0
27/08:00am 26.9 31.2 24.2 85 1.9 SSE 9 13 5 7 1014.4 1014.4 0.0
27/07:30am 26.0 30.3 24.2 90 1.2 SE 9 11 5 6 1014.0 1014.0 0.0
27/07:00am 25.6 29.6 24.4 93 0.8 ESE 11 11 6 6 1013.6 1013.6 0.0
27/06:30am 25.5 29.1 24.3 93 0.8 SE 13 15 7 8 1013.4 1013.4 0.0
27/06:00am 25.6 29.2 24.4 93 0.8 SE 13 15 7 8 1013.1 1013.1 0.0
27/05:30am 25.7 29.0 24.5 93 0.8 SE 15 15 8 8 1012.7 1012.7 0.0
27/05:00am 25.8 29.0 24.4 92 1.0 SE 15 17 8 9 1012.7 1012.7 0.0
27/04:30am 25.8 28.9 24.2 91 1.1 SE 15 17 8 9 1012.6 1012.6 0.0
27/04:00am 26.1 30.2 24.5 91 1.1 SSE 11 13 6 7 1012.5 1012.5 0.0
27/03:30am 26.2 30.6 24.4 90 1.2 SE 9 11 5 6 1012.5 1012.5 0.0
27/03:00am 26.3 30.6 24.2 88 1.4 SE 9 11 5 6 1012.6 1012.6 0.0
27/02:30am 26.1 30.6 24.0 88 1.4 ESE 7 9 4 5 1012.8 1012.8 0.0
27/02:00am 26.3 30.8 24.0 87 1.6 SE 7 9 4 5 1012.7 1012.7 0.0
27/01:30am 26.3 30.4 24.0 87 1.6 SE 9 11 5 6 1012.9 1012.9 0.0
27/01:00am 26.3 30.7 23.8 86 1.7 ESE 7 9 4 5 1013.0 1013.0 0.0
27/12:30am 26.3 30.3 23.8 86 1.7 E 9 11 5 6 1012.9 1012.9 0.0
27/12:00am 26.6 30.8 24.1 86 1.7 E 9 11 5 6 1012.9 1012.9 0.0
 
Date/Time
CST
Temp
°C
App
Temp
°C
Dew
Point
Rel
Hum
%
Delta-T
°C
Wind Press
QNH
hPa
Press
MSL
hPa
Rain
since 9 am
mm
Dir
 
Spd
km/h
Gust
km/h
Spd
kts
Gust
kts
26/11:30pm 26.6 30.3 23.9 85 1.9 E 11 13 6 7 1013.0 1013.0 0.0
26/11:00pm 26.6 30.7 23.9 85 1.9 E 9 13 5 7 1013.1 1013.1 0.0
26/10:30pm 26.5 30.6 24.0 86 1.7 E 9 11 5 6 1013.0 1013.0 0.0
26/10:00pm 26.4 30.5 23.9 86 1.7 E 9 11 5 6 1013.1 1013.1 0.0
26/09:30pm 26.4 30.6 24.1 87 1.6 ENE 9 11 5 6 1013.0 1013.0 0.0
26/09:00pm 26.8 31.7 24.3 86 1.7 NE 6 7 3 4 1013.0 1013.0 0.0
26/08:30pm 27.0 30.9 24.3 85 1.9 NNE 11 13 6 7 1012.9 1012.9 0.0
26/08:00pm 27.2 30.8 24.3 84 2.0 NNE 13 15 7 8 1012.5 1012.5 0.0
26/07:30pm 27.4 30.5 24.1 82 2.3 NNE 15 20 8 11 1012.3 1012.3 0.0
26/07:00pm 27.3 30.3 24.0 82 2.3 NNE 15 19 8 10 1011.8 1011.8 0.0
26/06:30pm 27.4 29.9 23.8 81 2.5 NE 17 20 9 11 1011.5 1011.5 0.0
26/06:00pm 27.6 29.5 23.4 78 2.9 NNE 19 22 10 12 1011.0 1011.0 0.0
26/05:30pm 28.1 30.0 23.7 77 3.0 NNE 20 26 11 14 1010.8 1010.8 0.0
26/05:00pm 28.6 30.4 23.5 74 3.5 NNE 20 26 11 14 1010.6 1010.6 0.0
26/04:30pm 29.4 31.2 23.6 71 4.0 NNE 20 24 11 13 1010.6 1010.6 0.0
26/04:00pm 29.6 31.5 23.8 71 4.0 NE 20 26 11 14 1010.5 1010.5 0.0
26/03:30pm 30.9 34.0 22.8 62 5.6 NE 11 15 6 8 1010.5 1010.5 0.0
26/03:00pm 31.0 34.2 23.1 63 5.4 NE 11 15 6 8 1010.7 1010.7 0.0
26/02:30pm 31.3 35.0 23.9 64 5.1 NE 11 13 6 7 1010.9 1010.9 0.0
26/02:00pm 30.1 33.0 22.5 63 5.2 NE 11 15 6 8 1011.4 1011.4 0.0
26/01:30pm 30.7 33.8 23.6 66 4.9 NE 13 17 7 9 1011.9 1011.9 0.0
26/01:00pm 29.6 33.1 23.5 69 4.2 NE 11 17 6 9 1012.4 1012.4 0.0
26/12:30pm 29.1 32.6 23.5 72 3.9 ENE 11 13 6 7 1012.9 1012.9 0.0
26/12:00pm 29.2 33.1 22.9 69 4.3 ESE 7 9 4 5 1013.4 1013.4 0.0
26/11:30am 27.8 31.8 22.7 74 3.5 SE 6 9 3 5 1013.9 1013.9 0.0
26/11:00am 28.0 32.2 23.4 76 3.2 SSE 7 9 4 5 1014.4 1014.4 0.0
26/10:30am 27.9 32.1 23.5 77 3.0 SSE 7 9 4 5 1014.8 1014.8 0.0
26/10:00am 27.1 30.7 23.1 79 2.7 S 9 11 5 6 1015.1 1015.1 0.0
26/09:30am 26.8 30.5 23.3 81 2.4 S 9 13 5 7 1015.0 1015.0 0.0
26/09:00am 26.5 29.5 23.4 83 2.1 S 13 17 7 9 1014.8 1014.8 0.0
26/08:30am 26.3 29.0 23.4 84 2.0 SSW 15 19 8 10 1014.4 1014.4 0.0
26/08:00am 26.1 29.1 23.4 85 1.8 SSW 13 15 7 8 1014.1 1014.1 0.0
26/07:30am 25.3 28.6 23.2 88 1.4 SSW 11 13 6 7 1013.8 1013.8 0.0
26/07:00am 24.9 28.3 23.3 91 1.1 S 11 15 6 8 1013.5 1013.5 0.0
26/06:30am 24.7 28.3 23.1 91 1.1 S 9 11 5 6 1013.2 1013.2 0.0
26/06:00am 24.8 28.6 23.4 92 1.0 S 9 9 5 5 1013.0 1013.0 0.0
26/05:30am 24.9 29.1 23.5 92 1.0 SSE 7 9 4 5 1012.9 1012.9 0.0
26/05:00am 25.0 28.6 23.8 93 0.8 SSE 11 15 6 8 1012.7 1012.7 0.0
26/04:30am 25.0 28.3 23.8 93 0.8 SSE 13 15 7 8 1012.6 1012.6 0.0
26/04:00am 25.2 28.6 24.0 93 0.8 S 13 15 7 8 1012.4 1012.4 0.0
26/03:30am 25.3 29.5 24.1 93 0.8 SSW 9 11 5 6 1012.4 1012.4 0.0
26/03:00am 25.0 29.6 23.8 93 0.8 SW 6 7 3 4 1012.4 1012.4 0.0
26/02:30am 25.0 29.7 24.0 94 0.7 W 6 9 3 5 1012.5 1012.5 0.0
26/02:00am 24.9 30.5 23.5 92 1.0 CALM 0 0 0 0 1012.6 1012.6 0.0
26/01:30am 24.9 29.8 23.1 90 1.2 E 2 6 1 3 1012.7 1012.7 0.0
26/01:00am 25.1 29.3 23.5 91 1.1 E 7 9 4 5 1012.7 1012.7 0.0
26/12:30am 25.0 30.3 23.1 89 1.3 CALM 0 0 0 0 1013.0 1013.0 0.0
26/12:00am 25.3 29.7 23.4 89 1.3 E 6 7 3 4 1013.1 1013.1 0.0
 
Date/Time
CST
Temp
°C
App
Temp
°C
Dew
Point
Rel
Hum
%
Delta-T
°C
Wind Press
QNH
hPa
Press
MSL
hPa
Rain
since 9 am
mm
Dir
 
Spd
km/h
Gust
km/h
Spd
kts
Gust
kts
25/11:30pm 25.6 29.9 23.7 89 1.3 E 7 9 4 5 1013.3 1013.3 0.0
25/11:00pm 25.8 30.1 23.7 88 1.4 ENE 7 11 4 6 1013.4 1013.4 0.0
25/10:30pm 25.9 29.8 23.6 87 1.6 E 9 13 5 7 1013.4 1013.4 0.0
25/10:00pm 26.1 29.6 23.6 86 1.7 ENE 11 13 6 7 1013.3 1013.3 0.0
25/09:30pm 26.2 29.7 23.5 85 1.8 NE 11 13 6 7 1013.2 1013.2 0.0
25/09:00pm 26.3 29.8 23.6 85 1.8 NE 11 15 6 8 1012.9 1012.9 0.0
25/08:30pm 26.5 29.3 23.6 84 2.0 NNE 15 19 8 10 1012.6 1012.6 0.0
25/08:00pm 26.4 28.8 23.7 85 1.9 NE 17 20 9 11 1012.4 1012.4 0.0

Other Formats:

Comma delimited format used in spreadsheet applications
http://www.bom.gov.au/fwo/IDD60801/IDD60801.94248.axf

JavaScript Object Notation format (JSON) in row-major order
http://www.bom.gov.au/fwo/IDD60801/IDD60801.94248.json